Davis Vantage Pro 2 Aktiv Plus 6163EU 24h Lftung - Paderborn Kernstadt
Wetterdaten: aktuell Sonntag, 05.02.2023 01:00
Datum Zeit Temp. I. Temp. A. Feuchte I. Feuchte A. Luftdruck Regen Wind Richtung Richtung Sonnenschein ET UV Solar Taupunkt Windchill Windben
05.02.2023 01:00 22,4 C 1,9 C 48 % 81 % 1036,9 hPa 0,0 l/m 3,8 km/h (1 Bft) SO 139 0 min 0,000 mm 0,0 UV-I 0 W/m -1,0 C 1,9 C 8,0 km/h (2 Bft)
05.02.2023 00:00 22,6 C 1,9 C 49 % 80 % 1036,9 hPa 0,0 l/m 6,6 km/h (2 Bft) SO 132 0 min 0,000 mm 0,0 UV-I 0 W/m -1,2 C 1,7 C 12,9 km/h (3 Bft)
04.02.2023 23:00 22,3 C 2,3 C 50 % 80 % 1037,3 hPa 0,0 l/m 4,4 km/h (1 Bft) SO 127 0 min 0,000 mm 0,0 UV-I 0 W/m -0,8 C 2,3 C 11,3 km/h (2 Bft)
04.02.2023 22:00 22,7 C 3,1 C 50 % 78 % 1037,6 hPa 0,0 l/m 4,3 km/h (1 Bft) O-SO 115 0 min 0,000 mm 0,0 UV-I 0 W/m -0,4 C 3,1 C 8,0 km/h (2 Bft)
04.02.2023 21:00 22,9 C 3,4 C 52 % 77 % 1037,5 hPa 0,0 l/m 6,8 km/h (2 Bft) O-SO 121 0 min 0,000 mm 0,0 UV-I 0 W/m -0,2 C 3,0 C 14,5 km/h (3 Bft)
04.02.2023 20:00 23,1 C 3,7 C 46 % 76 % 1037,5 hPa 0,0 l/m 5,2 km/h (1 Bft) O-SO 116 0 min 0,000 mm 0,0 UV-I 0 W/m -0,1 C 3,7 C 12,9 km/h (3 Bft)
04.02.2023 19:00 23,3 C 3,9 C 44 % 77 % 1037,6 hPa 0,0 l/m 2,5 km/h (1 Bft) O-SO 112 0 min 0,000 mm 0,0 UV-I 0 W/m 0,2 C 3,9 C 4,8 km/h (1 Bft)
04.02.2023 18:00 23,7 C 4,8 C 44 % 74 % 1037,4 hPa 0,0 l/m 3,1 km/h (1 Bft) O-SO 116 5 min 0,000 mm 0,0 UV-I 0 W/m 0,6 C 4,8 C 4,8 km/h (1 Bft)
04.02.2023 17:00 23,6 C 5,8 C 44 % 71 % 1037,0 hPa 0,0 l/m 4,9 km/h (1 Bft) O-SO 116 13 min 0,000 mm 0,0 UV-I 18 W/m 1,0 C 5,8 C 11,3 km/h (2 Bft)
04.02.2023 16:00 23,7 C 6,3 C 44 % 69 % 1036,8 hPa 0,0 l/m 5,0 km/h (1 Bft) O-SO 116 0 min 0,000 mm 0,0 UV-I 69 W/m 1,0 C 6,3 C 12,9 km/h (3 Bft)
04.02.2023 14:59 23,9 C 6,3 C 44 % 69 % 1036,7 hPa 0,0 l/m 2,1 km/h (1 Bft) O-SO 119 6 min 0,000 mm 0,0 UV-I 95 W/m 1,0 C 6,3 C 4,8 km/h (1 Bft)
04.02.2023 13:58 24,1 C 7,9 C 44 % 65 % 1036,7 hPa 0,0 l/m 1,9 km/h (1 Bft) O-SO 111 58 min 0,000 mm 0,0 UV-I 366 W/m 1,7 C 7,9 C 6,4 km/h (2 Bft)
04.02.2023 12:58 23,6 C 7,3 C 45 % 67 % 1036,4 hPa 0,0 l/m 1,9 km/h (1 Bft) O 96 56 min 0,000 mm 0,0 UV-I 297 W/m 1,6 C 7,3 C 4,8 km/h (1 Bft)
04.02.2023 11:56 23,1 C 6,8 C 46 % 70 % 1036,5 hPa 0,0 l/m 4,8 km/h (1 Bft) SO 145 58 min 0,000 mm 0,0 UV-I 364 W/m 1,7 C 6,8 C 9,7 km/h (2 Bft)
04.02.2023 10:56 22,5 C 5,3 C 46 % 76 % 1035,9 hPa 0,0 l/m 4,9 km/h (1 Bft) O 95 38 min 0,000 mm 0,0 UV-I 190 W/m 1,4 C 5,3 C 8,0 km/h (2 Bft)
04.02.2023 09:56 22,0 C 3,8 C 47 % 86 % 1035,2 hPa 0,0 l/m 3,6 km/h (1 Bft) O-NO 60 0 min 0,000 mm 0,0 UV-I 25 W/m 1,7 C 3,8 C 8,0 km/h (2 Bft)
04.02.2023 08:56 21,8 C 3,7 C 46 % 86 % 1034,5 hPa 0,0 l/m 0,0 km/h (0 Bft) N 10 0 min 0,000 mm 0,0 UV-I 19 W/m 1,6 C 3,7 C 1,6 km/h (1 Bft)
04.02.2023 07:54 21,6 C 4,1 C 47 % 86 % 1033,9 hPa 0,0 l/m 0,8 km/h (0 Bft) N 10 0 min 0,000 mm 0,0 UV-I 0 W/m 2,0 C 4,1 C 4,8 km/h (1 Bft)
04.02.2023 06:54 21,6 C 4,6 C 47 % 86 % 1033,1 hPa 0,0 l/m 2,5 km/h (1 Bft) N 358 0 min 0,000 mm 0,0 UV-I 0 W/m 2,5 C 4,6 C 8,0 km/h (2 Bft)
04.02.2023 05:54 21,6 C 5,2 C 47 % 86 % 1032,5 hPa 0,0 l/m 1,5 km/h (1 Bft) W-NW 298 0 min 0,000 mm 0,0 UV-I 0 W/m 3,1 C 5,2 C 4,8 km/h (1 Bft)
04.02.2023 04:54 21,7 C 5,4 C 47 % 86 % 1031,5 hPa 0,0 l/m 2,1 km/h (1 Bft) W-NW 303 0 min 0,000 mm 0,0 UV-I 0 W/m 3,3 C 5,4 C 4,8 km/h (1 Bft)
04.02.2023 03:54 21,8 C 5,5 C 47 % 85 % 1030,8 hPa 0,0 l/m 8,3 km/h (2 Bft) W-NW 283 0 min 0,000 mm 0,0 UV-I 0 W/m 3,2 C 3,9 C 19,3 km/h (3 Bft)
04.02.2023 02:54 21,8 C 5,6 C 46 % 85 % 1030,1 hPa 0,0 l/m 8,9 km/h (2 Bft) W-NW 284 0 min 0,000 mm 0,0 UV-I 0 W/m 3,3 C 3,5 C 16,1 km/h (3 Bft)
04.02.2023 02:00 21,8 C 5,6 C 47 % 85 % 1029,6 hPa 0,0 l/m 9,8 km/h (2 Bft) W 280 0 min 0,000 mm 0,0 UV-I 0 W/m 3,3 C 2,9 C 16,1 km/h (3 Bft)
_ Min-Zeit 05:08 00:34 16:11 13:52 02:04 - 06:20 - - - - - - 00:34 22:10 07:02
Minimum _ 21,5 C 1,8 C 43 % 64 % 1029,5 hPa - 0,0 km/h (0 Bft) - - - - - - -1,3 C 0,1 C 0,0 km/h (0 Bft)
_ Max-Zeit 13:58 13:52 20:51 04:54 20:32 02:00 02:28 - - 16:42 02:00 02:00 13:24 02:00 13:52 03:26
Maximum _ 24,1 C 8,2 C 52 % 86 % 1037,8 hPa 0,0 l/m 13,8 km/h
W (3 Bft)
- - 3 min 0,000 mm 0,0 UV-I 461 W/m 3,3 C 8,2 C 20,9 km/h
W-NW (4 Bft)
Durchschnitt _ 22,6 C 4,9 C 47 % 79 % 1034,9 hPa #0,0 l/m 4,5 km/h (1 Bft) O-SO - #0 min. #0,000 mm 0,0 UV-I 0 W/m 1,4 C 4,4 C 9,2 km/h (2 Bft)
© Andreas P. Gnther